Edford, Illinois
Current Conditions -  °F | °C
As of 3:52 PM on Monday 24 Nov 2014 (Local Time) from KMLI Reporting Station
Haze Haze  
Wind Chill: 12°   Ceiling: 1600
Heat Index: 27°   Visibility: 4mi
Dew Point: 21°   Wind: 25mph
Humidity: 78%   Direction: 270°W
Pressure: 29.66"   Gusts: 32mph
Location:  41.4828°N, 90.1801°W
Report Text: KMLI 242152Z 27022G28KT 4SM HZ OVC016 M03/M06 A2966 RMK AO2 PK WND 27034/2118 UPB05E36SNE05 SLP049 P0000 T10281061
Loading
Personal Weather Stations






























Interactive Weather Map New forecast layout! Learn more

10-Day Weather Forecast

Advertisements
Track Severe Weather on mobile